Suggestion Search

Define a bounding box (note: it will not wrap North/South over poles). If the range is zero degrees, a bounding box will not be used to constrain the search.

Centered On °   °

Match text in the suggestion title, science rationale or special notes. The search is case-insensitive. % is a wildcard (_ for a single character).

Find
Search

You may select science themes to limit query, otherwise suggestions from all themes will be returned.

Multiple values may be selected (shift + click).

  Rows per page
25,036 records found, displaying 501 to 600.[First/Prev] 2, 3, 4, 5, 6, 7, 8, 9 [Next/Last]
ID Suggestion Title Latitude Longitude Repeat Created Observation ID username
183146 Two notches near lowest elevation point of crater rim -33.199 24.726 STEREO 2020-05-29 edwinkite
183144 Two notches near lowest elevation point of crater rim -33.199 24.726 STEREO 2020-05-29 edwinkite
183142 Central deposit and possible exit breach -35.729 25.957 STEREO 2020-05-29 edwinkite
183140 Central deposit and possible exit breach -35.729 25.957 STEREO 2020-05-29 edwinkite
183138 Deep exit breach from young 5 km crater -34.222 25.464 STEREO 2020-05-29 edwinkite
183136 Deep exit breach from young 5 km crater -34.222 25.464 STEREO 2020-05-29 edwinkite
183134 Test exit breach or headward erosion hypotheses for erosional feature -34.731 25.737 STEREO 2020-05-29 edwinkite
183132 Test exit breach or headward erosion hypotheses for erosional feature -34.731 25.737 STEREO 2020-05-29 edwinkite
183130 Erosional windows into deposit at mouth of branching canyon -31.722 2.512 1 2020-05-29 edwinkite
183128 Mud volcano in the northern plain 45.143 5.259 1 2020-05-29 jcarter
183126 Cone in Tempe Terra 33.122 273.690 1 2020-05-28 antdoghalo
183124 Ridge and channel 30.944 322.189 1 2020-05-28 jimmars
183122 Channel 30.604 322.015 1 2020-05-28 jimmars
183120 Ridge with craters 30.527 321.904 1 2020-05-28 jimmars
183118 Ridge 30.366 322.085 1 2020-05-28 jimmars
183116 Light-toned layered deposits within Arda Valles -19.916 327.918 1 2020-05-28 cweitz
183114 LIght-toned layered deposits within Arda Valles -19.854 328.045 1 2020-05-28 cweitz
183112 Mound 29.900 321.939 1 2020-05-28 jimmars
183110 Mesa 30.154 322.169 1 2020-05-28 jimmars
183108 Mounds with ridges 36.906 321.193 1 2020-05-27 jimmars
183106 Crater Floor 37.536 321.388 1 2020-05-27 jimmars
183104 Recent impact crater 32.030 324.396 1 2020-05-27 jimmars
183102 Double crater 31.984 324.669 1 2020-05-27 jimmars
183100 Craters on trough 31.711 324.524 1 2020-05-27 jimmars
183098 Fresh crater 31.425 324.488 1 2020-05-27 jimmars
183096 Ridged terrain 31.128 324.711 1 2020-05-27 jimmars
183094 Mesa 30.931 324.673 1 2020-05-27 jimmars
183092 Salts in Hellas Planitia -37.068 53.782 1 2020-05-27 jcarter
183090 Ridge 30.822 324.838 1 2020-05-26 jimmars
183088 Oval crater 30.092 324.707 1 2020-05-26 jimmars
183086 Recent impact crater 29.967 325.044 1 2020-05-26 jimmars
183082 Cone and craters 29.655 324.730 1 2020-05-26 jimmars
183078 Mound with ridges 28.400 325.250 1 2020-05-26 jimmars
183076 Line of cones 27.297 326.453 1 2020-05-26 jimmars
183074 Ridge 27.474 326.168 1 2020-05-26 jimmars
183072 Channels 28.182 326.047 1 2020-05-25 jimmars
183070 Ridge 28.229 326.288 1 2020-05-25 jimmars
183068 Ridge 30.041 325.852 1 2020-05-25 jimmars
183066 Mounds with ridges 30.233 326.162 1 2020-05-25 jimmars
183064 Contact 30.463 326.142 1 2020-05-25 jimmars
183062 Ridges 30.183 325.797 1 2020-05-25 jimmars
183060 Mounds with ridges 29.843 326.231 1 2020-05-25 jimmars
183058 Mounds 29.799 326.180 1 2020-05-25 jimmars
183056 Ridges 28.984 326.297 1 2020-05-25 jimmars
183054 Channel 28.825 326.168 1 2020-05-25 jimmars
183052 Graben and lava flows East of Arsia Mons -11.134 242.706 STEREO 2020-05-25 patesson
183050 Graben and lava flows East of Arsia Mons -11.134 242.706 STEREO 2020-05-25 patesson
183046 Outcrop on E side of candidate delta scarp fronted deposit 23.423 358.624 1 2020-05-24 edwinkite
183044 More layered materials in low albedo region near deepest point of crater 25.994 348.008 1 2020-05-24 edwinkite
183042 Layered materials in low albedo region near deepest point of crater 26.030 347.906 1 2020-05-24 edwinkite
183040 Sinuous feature connecting two flat-topped deposits in Wahoo 22.987 326.196 1 2020-05-24 edwinkite
183038 Relationship between ridges channels and candidate lake deposits in Wahoo 23.472 325.999 1 2020-05-24 edwinkite
183036 Channel plus wind eroded sedimentary deposit and candidate paleolake 23.507 326.185 STEREO 2020-05-24 edwinkite
183034 Channel plus wind eroded sedimentary deposit and candidate paleolake 23.507 326.185 STEREO 2020-05-24 edwinkite
183032 4 km2 alluvial fan in post-Kasei crater 24.431 304.361 1 2020-05-24 edwinkite
183030 Possible bajada in southwest Sharonov Crater 26.673 300.841 1 2020-05-24 edwinkite
183026 Layer exposure in candidate alluvial fan deposits 21.636 272.798 STEREO 2020-05-24 edwinkite
183024 Layer exposure in candidate alluvial fan deposits 21.636 272.798 STEREO 2020-05-24 edwinkite
183022 Ripple change detection in Doukachaev crater in the southern midlatitudes -60.617 233.055 2 2020-05-24 lorifenton
183020 Layers and candidate synsedimentary impact craters in crater with deltas 27.948 11.404 1 2020-05-23 edwinkite
183018 Layers in trough on E side of Radau central peak 17.010 355.295 STEREO 2020-05-23 edwinkite
183016 Layers in trough on E side of Radau central peak 17.010 355.295 STEREO 2020-05-23 edwinkite
183014 Test for interfingering vs superposition of fans and lake deposits 12.654 311.767 STEREO 2020-05-23 edwinkite
183012 Test for interfingering vs superposition of fans and lake deposits 12.654 311.767 STEREO 2020-05-23 edwinkite
183010 Ridges and scarps on Acidalia Mensa 46.476 336.004 1 2020-05-22 chrisokubo
183008 Ridges and scarps on Acidalia Mensa 46.212 336.126 1 2020-05-22 chrisokubo
183006 Knob on Acidalia Mensa 47.371 336.048 STEREO 2020-05-22 chrisokubo
183004 Knob on Acidalia Mensa 47.371 336.048 STEREO 2020-05-22 chrisokubo
183000 Mound 31.420 326.545 1 2020-05-22 jimmars
182998 Double crater 30.790 326.810 1 2020-05-22 jimmars
182996 Ridge and depression 30.565 326.964 1 2020-05-22 jimmars
182994 Acidalia Planitia 44.068 324.425 1 2020-05-22 chrisokubo
182992 Acidalia Planitia 44.211 328.865 1 2020-05-22 chrisokubo
182990 Acidalia Planitia 42.701 335.442 1 2020-05-22 chrisokubo
182988 Acidalia Planitia 42.836 336.154 1 2020-05-22 chrisokubo
182986 Acidalia Planitia 42.745 336.557 1 2020-05-22 chrisokubo
182984 Acidalia Planitia 44.227 341.352 1 2020-05-22 chrisokubo
182982 Acidalia Planitia 43.946 342.074 1 2020-05-22 chrisokubo
182980 Acidalia Planitia 42.939 341.517 1 2020-05-22 chrisokubo
182978 Acidalia Planitia 47.583 340.159 1 2020-05-22 chrisokubo
182976 Acidalia Planitia 47.080 347.043 1 2020-05-22 chrisokubo
182974 Acidalia Planitia 47.004 347.457 1 2020-05-22 chrisokubo
182972 Acidalia Planitia 46.847 343.809 1 2020-05-22 chrisokubo
182970 Ridges in Acidalia 29.402 336.320 STEREO 2020-05-22 chrisokubo
182968 Ridges in Acidalia 29.402 336.320 STEREO 2020-05-22 chrisokubo
182966 Ridges in Acidalia 37.244 345.405 STEREO 2020-05-22 chrisokubo
182964 Ridges in Acidalia 37.244 345.405 STEREO 2020-05-22 chrisokubo
182962 Spatter cones in Tharsis 6.396 261.620 1 2020-05-22 antdoghalo
182960 Ridges in Acidalia 37.553 345.368 STEREO 2020-05-22 chrisokubo
182958 Ridges in Acidalia 37.553 345.368 STEREO 2020-05-22 chrisokubo
182954 Possible Volcanic Caldera in Terra Sirenum -26.859 211.146 STEREO 2020-05-22 antdoghalo
182952 Possible Volcanic Caldera in Terra Sirenum -26.859 211.146 STEREO 2020-05-22 antdoghalo
182950 Ridge and cone 30.315 326.930 1 2020-05-22 jimmars
182948 Test hypothesis that lake deposits embay ejecta of 10 km diameter crater 8.326 310.836 1 2020-05-22 edwinkite
182946 Test relationship between ridges and candidate lake deposits 8.240 310.453 1 2020-05-22 edwinkite
182944 Ridge and channel 29.091 327.084 1 2020-05-22 jimmars
182942 Rocky crater floor -30.194 44.512 1 2020-05-22 dundas
182940 Channel segment 28.844 326.981 1 2020-05-22 jimmars
182938 Ridges and depressions 28.512 327.270 1 2020-05-22 jimmars
182936 Elongated depressions 28.288 327.328 1 2020-05-22 jimmars

Each suggestion is given a unique ID. A stereo suggestion will be made into a pair at the discretion of the Science Theme Lead.

Suggestion title.

Latitudes are expressed in planetocentric degrees.

Longitude are measured in degrees and range east from 0 to 360.

1 for a single suggestion, STEREO for a stereo suggestion, otherwise the number of suggestions in a seasonal or other repeat set.

The date on which the suggestion was created.

If the suggestion has been retired, a link to the observation page.

The username of the suggester.